Time;durP1;ratioP1;P1;durP2;ratioP2;P2;SDS_P1;SDS_P2;PMS_P1;PMS_P2;Temp;Humidity;BMP_temperature;BMP_pressure;BME280_temperature;BME280_humidity;BME280_pressure;Samples;Min_cycle;Max_cycle;Signal;HPM_P1;HPM_P2
2023/04/25 00:00:14;;;;;;;9.07;3.40;;;;;;;3.51;100.00;100197.22;688524;28;944;-65
2023/04/25 00:00:35;;;;;;;8.50;3.60;;;;;;;3.48;100.00;100198.91;687973;28;968;-65
2023/04/25 00:00:56;;;;;;;8.27;3.58;;;;;;;3.49;100.00;100201.50;688390;28;821;-65
2023/04/25 00:01:16;;;;;;;6.70;3.40;;;;;;;3.49;100.00;100201.50;690112;28;4278;-65
2023/04/25 00:01:37;;;;;;;7.70;3.30;;;;;;;3.50;100.00;100194.63;691103;28;1081;-65
2023/04/25 00:01:59;;;;;;;6.67;3.40;;;;;;;3.49;100.00;100198.03;689420;28;3514;-65
2023/04/25 00:02:19;;;;;;;7.35;3.58;;;;;;;3.51;100.00;100193.78;689690;28;1000;-65
2023/04/25 00:02:41;;;;;;;7.07;3.20;;;;;;;3.49;100.00;100195.47;688873;28;1525;-65
2023/04/25 00:03:01;;;;;;;8.02;3.22;;;;;;;3.50;100.00;100197.22;691618;28;1171;-65
2023/04/25 00:03:24;;;;;;;7.82;3.30;;;;;;;3.51;100.00;100194.66;691982;28;932;-65
2023/04/25 00:03:45;;;;;;;8.68;3.67;;;;;;;3.49;100.00;100192.88;689664;28;1618;-65
2023/04/25 00:04:07;;;;;;;8.85;3.42;;;;;;;3.49;100.00;100196.34;690930;28;4566;-65
2023/04/25 00:04:29;;;;;;;7.55;3.17;;;;;;;3.49;100.00;100192.88;689765;28;1391;-65
2023/04/25 00:04:49;;;;;;;8.45;3.15;;;;;;;3.46;100.00;100195.41;687140;28;1621;-65
2023/04/25 00:05:10;;;;;;;9.67;3.40;;;;;;;3.46;100.00;100192.81;688343;28;1043;-65
2023/04/25 00:05:31;;;;;;;8.20;3.38;;;;;;;3.47;100.00;100192.00;688738;28;825;-65
2023/04/25 00:05:51;;;;;;;6.97;3.22;;;;;;;3.47;100.00;100197.16;687461;28;1260;-65
2023/04/25 00:06:12;;;;;;;8.57;3.53;;;;;;;3.44;100.00;100191.94;687798;28;819;-65
2023/04/25 00:06:35;;;;;;;8.52;3.53;;;;;;;3.42;100.00;100194.50;689427;28;1516;-65
2023/04/25 00:06:57;;;;;;;7.38;3.30;;;;;;;3.43;100.00;100192.78;692582;28;1050;-65
2023/04/25 00:07:18;;;;;;;7.78;3.40;;;;;;;3.44;100.00;100195.38;689546;28;4416;-66
2023/04/25 00:07:38;;;;;;;7.88;3.45;;;;;;;3.44;100.00;100192.81;690369;28;1538;-65
2023/04/25 00:07:58;;;;;;;7.57;3.40;;;;;;;3.45;100.00;100193.66;691262;28;880;-65
2023/04/25 00:08:19;;;;;;;7.93;3.50;;;;;;;3.44;100.00;100197.13;690653;28;916;-65
2023/04/25 00:08:40;;;;;;;8.23;3.63;;;;;;;3.45;100.00;100198.84;690922;28;1552;-65
2023/04/25 00:09:01;;;;;;;8.00;3.28;;;;;;;3.44;100.00;100200.56;691593;28;1376;-65
2023/04/25 00:09:22;;;;;;;8.27;3.45;;;;;;;3.44;100.00;100197.13;691756;28;1083;-65
2023/04/25 00:09:42;;;;;;;8.80;3.53;;;;;;;3.42;100.00;100194.50;691036;28;1545;-65
2023/04/25 00:10:03;;;;;;;9.33;4.03;;;;;;;3.41;100.00;100193.63;690553;28;778;-65
2023/04/25 00:10:24;;;;;;;7.28;3.88;;;;;;;3.43;100.00;100196.22;691198;28;5321;-65
2023/04/25 00:10:45;;;;;;;9.32;3.83;;;;;;;3.44;100.00;100199.69;687770;28;1631;-65
2023/04/25 00:11:05;;;;;;;7.93;3.70;;;;;;;3.41;100.00;100193.63;690273;28;1133;-65
2023/04/25 00:11:25;;;;;;;7.50;3.30;;;;;;;3.43;100.00;100191.06;692801;28;916;-65
2023/04/25 00:11:46;;;;;;;7.25;3.65;;;;;;;3.45;100.00;100196.25;687034;28;1434;-65
2023/04/25 00:12:07;;;;;;;9.13;3.90;;;;;;;3.45;100.00;100198.84;689501;28;1503;-65
2023/04/25 00:12:30;;;;;;;8.90;3.63;;;;;;;3.44;100.00;100189.38;687985;28;1410;-65
2023/04/25 00:12:51;;;;;;;8.30;3.50;;;;;;;3.46;100.00;100190.25;684717;28;1600;-65
2023/04/25 00:13:11;;;;;;;8.20;3.80;;;;;;;3.43;100.00;100193.66;682437;28;4461;-65
2023/04/25 00:13:33;;;;;;;7.90;3.40;;;;;;;3.42;100.00;100189.34;682037;28;1011;-65
2023/04/25 00:13:54;;;;;;;8.50;3.60;;;;;;;3.43;100.00;100193.66;684890;28;1408;-65
2023/04/25 00:14:14;;;;;;;7.60;3.95;;;;;;;3.41;100.00;100191.03;684573;28;1259;-65
2023/04/25 00:14:35;;;;;;;7.40;3.88;;;;;;;3.43;100.00;100191.06;684196;28;2132;-65
2023/04/25 00:14:57;;;;;;;7.63;3.78;;;;;;;3.44;100.00;100195.38;686647;28;833;-66
2023/04/25 00:15:17;;;;;;;7.43;3.45;;;;;;;3.45;100.00;100198.84;684155;28;1411;-65
2023/04/25 00:15:38;;;;;;;6.90;3.55;;;;;;;3.44;100.00;100190.22;684934;28;1651;-65
2023/04/25 00:15:59;;;;;;;7.43;3.85;;;;;;;3.42;100.00;100189.34;686488;28;1298;-65
2023/04/25 00:16:20;;;;;;;8.57;3.50;;;;;;;3.41;100.00;100195.34;687216;28;4559;-66
2023/04/25 00:16:40;;;;;;;7.95;3.55;;;;;;;3.39;100.00;100192.75;685496;28;1565;-65
2023/04/25 00:17:02;;;;;;;6.70;3.53;;;;;;;3.37;100.00;100191.81;685133;28;1402;-66
2023/04/25 00:17:26;;;;;;;7.10;3.45;;;;;;;3.36;100.00;100184.91;684836;28;1027;-66
2023/04/25 00:17:47;;;;;;;9.10;3.80;;;;;;;3.35;100.00;100188.38;686429;28;1699;-66
2023/04/25 00:18:07;;;;;;;8.75;3.50;;;;;;;3.35;100.00;100193.53;688874;28;932;-65
2023/04/25 00:18:29;;;;;;;8.60;3.50;;;;;;;3.34;100.00;100193.50;689410;28;952;-65
2023/04/25 00:18:51;;;;;;;8.07;3.42;;;;;;;3.33;100.00;100192.63;688695;28;1460;-66
2023/04/25 00:19:12;;;;;;;8.10;3.53;;;;;;;3.31;100.00;100191.75;690297;28;4400;-65
2023/04/25 00:19:34;;;;;;;9.63;3.70;;;;;;;3.33;100.00;100186.59;691509;28;1162;-65
2023/04/25 00:19:58;;;;;;;7.20;3.80;;;;;;;3.32;100.00;100188.28;691083;28;1390;-65
2023/04/25 00:20:18;;;;;;;7.38;3.90;;;;;;;3.34;100.00;100196.94;689992;28;1437;-65
2023/04/25 00:20:39;;;;;;;9.52;4.22;;;;;;;3.34;100.00;100193.50;689112;28;1571;-65
2023/04/25 00:20:59;;;;;;;9.13;3.50;;;;;;;3.34;100.00;100189.19;689699;28;1000;-65
2023/04/25 00:21:20;;;;;;;8.57;3.40;;;;;;;3.34;100.00;100193.50;688647;28;1025;-65
2023/04/25 00:21:41;;;;;;;7.60;3.70;;;;;;;3.30;100.00;100183.97;688702;28;1882;-65
2023/04/25 00:22:01;;;;;;;8.55;3.53;;;;;;;3.28;100.00;100188.22;687142;28;1351;-65
2023/04/25 00:22:22;;;;;;;7.47;3.40;;;;;;;3.29;100.00;100193.41;688441;28;4403;-65
2023/04/25 00:22:42;;;;;;;9.68;3.55;;;;;;;3.31;100.00;100188.25;690225;28;904;-65
2023/04/25 00:23:02;;;;;;;8.53;3.50;;;;;;;3.32;100.00;100197.75;690088;28;809;-65
2023/04/25 00:23:23;;;;;;;7.55;3.85;;;;;;;3.31;100.00;100196.00;691373;28;943;-65
2023/04/25 00:23:47;;;;;;;7.88;3.63;;;;;;;3.33;100.00;100194.34;689532;28;1568;-65
2023/04/25 00:24:07;;;;;;;8.90;3.80;;;;;;;3.32;100.00;100190.88;689772;28;786;-65
2023/04/25 00:24:27;;;;;;;8.68;3.53;;;;;;;3.32;100.00;100190.00;691511;28;967;-65
2023/04/25 00:24:48;;;;;;;7.80;3.70;;;;;;;3.29;100.00;100196.00;687414;28;1486;-65
2023/04/25 00:25:08;;;;;;;6.95;3.40;;;;;;;3.29;100.00;100189.97;686536;28;4521;-65
2023/04/25 00:25:29;;;;;;;7.27;3.60;;;;;;;3.28;100.00;100202.03;688783;28;873;-65
2023/04/25 00:25:50;;;;;;;8.93;3.60;;;;;;;3.29;100.00;100193.41;686327;28;1605;-65
2023/04/25 00:26:11;;;;;;;7.10;3.50;;;;;;;3.30;100.00;100196.88;686398;28;1028;-65
2023/04/25 00:26:33;;;;;;;7.22;3.80;;;;;;;3.30;100.00;100199.47;689151;28;1382;-65
2023/04/25 00:26:54;;;;;;;7.22;3.60;;;;;;;3.31;100.00;100196.00;688884;28;1579;-65
2023/04/25 00:27:14;;;;;;;9.63;3.63;;;;;;;3.30;100.00;100192.56;688731;28;1345;-65
2023/04/25 00:27:35;;;;;;;7.93;3.30;;;;;;;3.32;100.00;100193.44;688352;28;1631;-65
2023/04/25 00:27:55;;;;;;;7.88;3.40;;;;;;;3.32;100.00;100193.44;689450;28;988;-65
2023/04/25 00:28:16;;;;;;;8.70;3.33;;;;;;;3.33;100.00;100190.03;688608;28;4541;-65
2023/04/25 00:28:37;;;;;;;7.60;3.20;;;;;;;3.34;100.00;100194.38;688352;28;1759;-65
2023/04/25 00:28:58;;;;;;;7.68;3.55;;;;;;;3.34;100.00;100199.53;688997;28;1171;-65
2023/04/25 00:29:18;;;;;;;8.70;3.42;;;;;;;3.34;100.00;100201.25;687697;28;1915;-65
2023/04/25 00:29:38;;;;;;;8.55;3.58;;;;;;;3.34;100.00;100193.50;688213;28;988;-65
2023/04/25 00:29:59;;;;;;;8.70;3.50;;;;;;;3.31;100.00;100196.00;685649;28;1427;-65
2023/04/25 00:30:20;;;;;;;9.65;3.70;;;;;;;3.33;100.00;100199.50;687253;28;1243;-65
2023/04/25 00:30:41;;;;;;;7.80;3.47;;;;;;;3.31;100.00;100191.75;690220;28;935;-66
2023/04/25 00:31:01;;;;;;;7.88;3.47;;;;;;;3.30;100.00;100195.16;683372;28;817;-65
2023/04/25 00:31:22;;;;;;;7.70;3.53;;;;;;;3.31;100.00;100191.75;682858;28;4290;-65
2023/04/25 00:31:42;;;;;;;8.00;3.47;;;;;;;3.33;100.00;100197.78;680513;28;1440;-65
2023/04/25 00:32:03;;;;;;;8.20;3.80;;;;;;;3.35;100.00;100196.13;680942;29;1484;-65
2023/04/25 00:32:23;;;;;;;8.48;3.67;;;;;;;3.35;100.00;100205.56;680476;28;1288;-65
2023/04/25 00:32:44;;;;;;;9.43;3.60;;;;;;;3.33;100.00;100195.19;677756;28;1591;-65
2023/04/25 00:33:05;;;;;;;8.93;3.67;;;;;;;3.34;100.00;100193.50;684270;28;1115;-65
2023/04/25 00:33:26;;;;;;;8.90;3.67;;;;;;;3.34;100.00;100202.13;684650;28;1060;-65
2023/04/25 00:33:47;;;;;;;8.93;3.38;;;;;;;3.33;100.00;100200.38;686698;28;1050;-65
2023/04/25 00:34:08;;;;;;;7.32;3.58;;;;;;;3.33;100.00;100195.19;687116;28;4456;-65
2023/04/25 00:34:29;;;;;;;8.30;3.65;;;;;;;3.29;100.00;100193.41;688993;28;1328;-65
2023/04/25 00:34:50;;;;;;;9.90;3.72;;;;;;;3.29;100.00;100197.72;689005;28;1567;-65
2023/04/25 00:35:10;;;;;;;7.70;3.53;;;;;;;3.26;100.00;100198.53;690487;28;1289;-65
2023/04/25 00:35:31;;;;;;;7.53;3.33;;;;;;;3.27;100.00;100199.38;690278;28;1074;-65
2023/04/25 00:35:51;;;;;;;6.60;3.20;;;;;;;3.27;100.00;100196.81;689888;28;1361;-65
2023/04/25 00:36:12;;;;;;;7.57;3.40;;;;;;;3.28;100.00;100193.38;689643;28;1246;-65
2023/04/25 00:36:33;;;;;;;9.18;3.40;;;;;;;3.28;100.00;100199.44;687097;28;1224;-65
2023/04/25 00:36:53;;;;;;;9.13;3.60;;;;;;;3.29;100.00;100201.16;687851;28;1504;-65
2023/04/25 00:37:14;;;;;;;7.95;3.40;;;;;;;3.31;100.00;100196.91;686727;28;4342;-65
2023/04/25 00:37:35;;;;;;;9.35;3.80;;;;;;;3.31;100.00;100196.91;686216;28;1497;-65
2023/04/25 00:37:55;;;;;;;8.18;3.75;;;;;;;3.32;100.00;100205.50;684082;28;817;-65
2023/04/25 00:38:16;;;;;;;8.40;3.50;;;;;;;3.31;100.00;100202.06;685490;28;1351;-65
2023/04/25 00:38:38;;;;;;;7.60;3.55;;;;;;;3.32;100.00;100193.44;684505;28;1675;-65
2023/04/25 00:38:58;;;;;;;9.02;3.55;;;;;;;3.34;100.00;100198.69;684640;28;1409;-65
2023/04/25 00:39:18;;;;;;;8.23;3.80;;;;;;;3.34;100.00;100196.94;683808;28;1399;-65
2023/04/25 00:39:39;;;;;;;8.43;3.78;;;;;;;3.34;100.00;100196.94;683075;28;1695;-65
2023/04/25 00:40:00;;;;;;;7.97;3.43;;;;;;;3.34;100.00;100191.78;681413;28;1088;-65
2023/04/25 00:40:21;;;;;;;7.63;3.75;;;;;;;3.37;100.00;100196.13;680804;28;4528;-65
2023/04/25 00:40:43;;;;;;;7.82;3.50;;;;;;;3.35;100.00;100193.53;680990;28;1557;-65
2023/04/25 00:41:06;;;;;;;7.18;3.13;;;;;;;3.32;100.00;100196.03;682899;28;1347;-65
2023/04/25 00:41:27;;;;;;;9.40;3.88;;;;;;;3.31;100.00;100191.75;678920;29;925;-65
2023/04/25 00:41:48;;;;;;;9.02;3.72;;;;;;;3.32;100.00;100197.75;680234;28;1260;-65
2023/04/25 00:42:09;;;;;;;9.40;3.80;;;;;;;3.32;100.00;100196.03;684099;28;805;-65
2023/04/25 00:42:30;;;;;;;9.20;3.80;;;;;;;3.34;100.00;100196.09;684568;28;1637;-65
2023/04/25 00:42:52;;;;;;;7.30;3.47;;;;;;;3.35;100.00;100195.22;684770;28;1547;-65
2023/04/25 00:43:13;;;;;;;7.72;3.45;;;;;;;3.34;100.00;100191.78;683065;28;4315;-65
2023/04/25 00:43:33;;;;;;;7.77;3.40;;;;;;;3.35;100.00;100193.53;688130;28;1121;-65
2023/04/25 00:43:56;;;;;;;7.67;3.53;;;;;;;3.35;100.00;100198.69;686674;28;1556;-65
2023/04/25 00:44:16;;;;;;;7.57;3.63;;;;;;;3.38;100.00;100198.75;687435;28;1182;-65
2023/04/25 00:44:38;;;;;;;8.88;3.67;;;;;;;3.39;100.00;100199.59;685182;28;1553;-65
2023/04/25 00:44:59;;;;;;;7.78;3.30;;;;;;;3.39;100.00;100197.91;687471;28;912;-65
2023/04/25 00:45:20;;;;;;;6.38;3.20;;;;;;;3.40;100.00;100191.88;687571;28;1221;-65
2023/04/25 00:45:42;;;;;;;7.93;3.50;;;;;;;3.41;100.00;100198.78;684442;28;1664;-65
2023/04/25 00:46:03;;;;;;;8.20;3.40;;;;;;;3.43;100.00;100193.66;684321;28;916;-65
2023/04/25 00:46:24;;;;;;;8.75;3.55;;;;;;;3.45;100.00;100196.25;682808;28;4588;-65
2023/04/25 00:46:47;;;;;;;9.00;3.77;;;;;;;3.46;100.00;100195.41;683534;28;1606;-65
2023/04/25 00:47:07;;;;;;;8.07;3.90;;;;;;;3.45;100.00;100196.25;681790;29;1466;-65
2023/04/25 00:47:28;;;;;;;7.03;3.70;;;;;;;3.44;100.00;100197.13;682992;28;989;-65
2023/04/25 00:47:50;;;;;;;7.57;3.55;;;;;;;3.50;100.00;100194.63;683300;28;1174;-65
2023/04/25 00:48:11;;;;;;;6.75;3.50;;;;;;;3.58;100.00;100193.03;685717;28;984;-65
2023/04/25 00:48:32;;;;;;;7.20;3.60;;;;;;;3.57;100.00;100199.03;686364;28;1277;-65
2023/04/25 00:48:52;;;;;;;8.80;3.73;;;;;;;3.53;100.00;100197.25;684376;28;1639;-65
2023/04/25 00:49:16;;;;;;;9.30;3.67;;;;;;;3.51;100.00;100191.19;683150;28;4320;-65
2023/04/25 00:49:37;;;;;;;7.63;3.78;;;;;;;3.52;100.00;100191.22;686333;28;1500;-65
2023/04/25 00:49:57;;;;;;;8.07;3.60;;;;;;;3.54;100.00;100192.09;689388;28;967;-65
2023/04/25 00:50:17;;;;;;;8.50;3.60;;;;;;;3.56;100.00;100194.75;687494;28;1015;-65
2023/04/25 00:50:38;;;;;;;8.55;3.63;;;;;;;3.54;100.00;100197.28;688426;28;1579;-65
2023/04/25 00:50:59;;;;;;;9.70;3.50;;;;;;;3.54;100.00;100196.41;688653;28;1407;-65
2023/04/25 00:51:21;;;;;;;8.02;3.50;;;;;;;3.53;100.00;100192.97;685149;28;998;-65
2023/04/25 00:51:43;;;;;;;6.88;3.10;;;;;;;3.53;100.00;100195.56;684739;28;1491;-65
2023/04/25 00:52:04;;;;;;;7.40;3.85;;;;;;;3.51;100.00;100191.19;682961;28;4380;-65
2023/04/25 00:52:25;;;;;;;8.73;3.88;;;;;;;3.52;100.00;100200.69;688307;28;1430;-65
2023/04/25 00:52:45;;;;;;;7.83;3.47;;;;;;;3.53;100.00;100194.66;683541;28;1519;-65
2023/04/25 00:53:06;;;;;;;7.40;3.63;;;;;;;3.53;100.00;100197.25;683273;28;885;-65
2023/04/25 00:53:28;;;;;;;6.85;3.53;;;;;;;3.49;100.00;100198.03;683945;28;892;-65
2023/04/25 00:53:50;;;;;;;9.02;3.45;;;;;;;3.48;100.00;100199.75;682943;28;1728;-65
2023/04/25 00:54:12;;;;;;;7.28;3.17;;;;;;;3.49;100.00;100195.47;684118;28;1383;-66
2023/04/25 00:54:32;;;;;;;6.18;3.40;;;;;;;3.47;100.00;100199.75;682232;28;1228;-66
2023/04/25 00:54:53;;;;;;;7.07;3.60;;;;;;;3.47;100.00;100192.84;684275;28;1565;-66
2023/04/25 00:55:16;;;;;;;7.63;3.63;;;;;;;3.47;100.00;100190.25;686147;28;4312;-66
2023/04/25 00:55:36;;;;;;;7.50;3.80;;;;;;;3.46;100.00;100195.41;683640;28;1541;-66
2023/04/25 00:55:57;;;;;;;7.30;3.40;;;;;;;3.47;100.00;100192.84;686096;28;982;-66
2023/04/25 00:56:17;;;;;;;6.65;3.30;;;;;;;3.48;100.00;100193.75;686968;28;1241;-66
2023/04/25 00:56:38;;;;;;;6.95;3.40;;;;;;;3.47;100.00;100198.03;686391;28;1485;-66
2023/04/25 00:57:00;;;;;;;8.02;3.25;;;;;;;3.48;100.00;100198.91;687114;28;932;-66
2023/04/25 00:57:21;;;;;;;6.82;3.20;;;;;;;3.48;100.00;100198.91;686853;28;1379;-67
2023/04/25 00:57:42;;;;;;;6.22;2.95;;;;;;;3.52;100.00;100195.53;688595;28;1046;-66
2023/04/25 00:58:03;;;;;;;6.75;3.10;;;;;;;3.55;100.00;100198.16;684128;28;3589;-66
2023/04/25 00:58:24;;;;;;;6.70;3.17;;;;;;;3.56;100.00;100197.31;689994;28;4253;-66
2023/04/25 00:58:45;;;;;;;6.67;3.17;;;;;;;3.56;100.00;100199.91;689474;28;1562;-66
2023/04/25 00:59:05;;;;;;;6.82;3.33;;;;;;;3.54;100.00;100191.25;688863;28;1431;-66
2023/04/25 00:59:27;;;;;;;8.87;3.30;;;;;;;3.55;100.00;100195.56;690019;28;989;-66
2023/04/25 00:59:51;;;;;;;7.63;3.10;;;;;;;3.53;100.00;100192.06;690805;28;1526;-66
2023/04/25 01:00:14;;;;;;;7.32;3.33;;;;;;;3.54;100.00;100199.00;691190;28;836;-66
2023/04/25 01:00:35;;;;;;;7.53;3.50;;;;;;;3.55;100.00;100187.81;688501;28;1343;-66
2023/04/25 01:00:57;;;;;;;7.70;3.33;;;;;;;3.49;100.00;100196.34;687278;28;1456;-66
2023/04/25 01:01:17;;;;;;;5.88;3.10;;;;;;;3.47;100.00;100199.75;687894;28;4450;-66
2023/04/25 01:01:39;;;;;;;6.38;3.25;;;;;;;3.43;100.00;100195.38;686577;28;1754;-66
2023/04/25 01:02:00;;;;;;;6.57;3.30;;;;;;;3.41;100.00;100197.94;689399;28;1100;-66
2023/04/25 01:02:21;;;;;;;7.20;3.50;;;;;;;3.44;100.00;100192.81;685801;28;1442;-66
2023/04/25 01:02:44;;;;;;;6.93;3.20;;;;;;;3.52;100.00;100191.22;684548;28;1817;-66
2023/04/25 01:03:05;;;;;;;6.10;3.30;;;;;;;3.52;100.00;100192.94;686263;28;936;-66
2023/04/25 01:03:28;;;;;;;6.37;3.20;;;;;;;3.50;100.00;100192.94;686481;28;987;-66
2023/04/25 01:03:49;;;;;;;6.72;3.20;;;;;;;3.50;100.00;100192.03;682215;28;1452;-66
2023/04/25 01:04:10;;;;;;;6.78;3.00;;;;;;;3.47;100.00;100187.69;683958;28;4401;-66
2023/04/25 01:04:30;;;;;;;7.03;3.17;;;;;;;3.49;100.00;100188.59;686652;28;1028;-66
2023/04/25 01:04:51;;;;;;;6.53;3.47;;;;;;;3.56;100.00;100186.97;685647;28;1564;-66
2023/04/25 01:05:11;;;;;;;6.30;3.30;;;;;;;3.61;100.00;100184.47;686539;28;920;-66
2023/04/25 01:05:32;;;;;;;7.90;3.40;;;;;;;3.60;100.00;100183.59;688999;28;1390;-66
2023/04/25 01:05:53;;;;;;;6.63;3.05;;;;;;;3.59;100.00;100187.03;690690;28;1571;-66
2023/04/25 01:06:13;;;;;;;6.50;3.00;;;;;;;3.58;100.00;100188.72;690899;28;1029;-66
2023/04/25 01:06:35;;;;;;;7.45;3.28;;;;;;;3.58;100.00;100182.69;690636;28;956;-66
2023/04/25 01:06:55;;;;;;;7.10;3.40;;;;;;;3.60;100.00;100182.72;689228;28;1509;-67
2023/04/25 01:07:16;;;;;;;7.03;3.27;;;;;;;3.60;100.00;100181.03;690577;28;4402;-67
2023/04/25 01:07:36;;;;;;;7.68;3.10;;;;;;;3.59;100.00;100189.63;692807;28;808;-66
2023/04/25 01:07:57;;;;;;;7.75;3.20;;;;;;;3.58;100.00;100187.88;690936;28;1375;-66
2023/04/25 01:08:18;;;;;;;5.97;2.90;;;;;;;3.57;100.00;100184.41;691380;28;848;-66
2023/04/25 01:08:39;;;;;;;5.35;3.03;;;;;;;3.58;100.00;100182.69;690280;28;1499;-66
2023/04/25 01:08:59;;;;;;;5.85;3.05;;;;;;;3.56;100.00;100181.81;689597;28;971;-66
2023/04/25 01:09:20;;;;;;;6.38;3.03;;;;;;;3.54;100.00;100176.59;690437;28;2035;-66
2023/04/25 01:09:41;;;;;;;6.85;3.13;;;;;;;3.50;100.00;100186.88;689792;28;1522;-66
2023/04/25 01:10:02;;;;;;;7.50;3.33;;;;;;;3.49;100.00;100182.53;689664;28;1387;-66
2023/04/25 01:10:23;;;;;;;6.70;3.13;;;;;;;3.50;100.00;100189.44;690263;28;4397;-66
2023/04/25 01:10:43;;;;;;;7.93;3.50;;;;;;;3.50;100.00;100187.75;687243;28;1792;-66
2023/04/25 01:11:04;;;;;;;7.70;3.40;;;;;;;3.50;100.00;100184.28;686573;28;1320;-66
2023/04/25 01:11:24;;;;;;;8.18;4.20;;;;;;;3.51;100.00;100196.38;687891;28;1100;-66
2023/04/25 01:11:45;;;;;;;7.50;4.47;;;;;;;3.50;100.00;100189.44;687150;28;1575;-66
2023/04/25 01:12:05;;;;;;;7.60;3.67;;;;;;;3.49;100.00;100185.13;689115;28;802;-66
2023/04/25 01:12:26;;;;;;;8.27;3.65;;;;;;;3.49;100.00;100187.69;688956;28;921;-66
2023/04/25 01:12:47;;;;;;;7.20;3.60;;;;;;;3.47;100.00;100190.25;684362;28;1421;-66
2023/04/25 01:13:08;;;;;;;6.45;3.47;;;;;;;3.48;100.00;100186.00;685047;28;4463;-66
2023/04/25 01:13:28;;;;;;;6.57;3.30;;;;;;;3.46;100.00;100191.13;685916;28;1231;-66
2023/04/25 01:13:48;;;;;;;6.50;3.40;;;;;;;3.48;100.00;100178.22;687620;28;1478;-66
2023/04/25 01:14:09;;;;;;;6.68;3.13;;;;;;;3.49;100.00;100188.59;687378;28;1465;-66
2023/04/25 01:14:29;;;;;;;8.47;3.30;;;;;;;3.51;100.00;100186.03;688823;28;1736;-66
2023/04/25 01:14:50;;;;;;;7.60;3.40;;;;;;;3.52;100.00;100190.38;690206;28;1553;-66
2023/04/25 01:15:10;;;;;;;7.90;3.30;;;;;;;3.53;100.00;100187.81;691683;28;884;-66
2023/04/25 01:15:31;;;;;;;6.20;3.22;;;;;;;3.54;100.00;100188.66;689381;28;877;-67
2023/04/25 01:15:52;;;;;;;7.40;3.45;;;;;;;3.58;100.00;100186.13;687772;28;1581;-66
2023/04/25 01:16:12;;;;;;;6.27;3.40;;;;;;;3.65;100.00;100187.09;690925;28;4484;-67
2023/04/25 01:16:33;;;;;;;5.90;3.30;;;;;;;3.68;100.00;100182.00;687176;28;1318;-66
2023/04/25 01:16:53;;;;;;;7.03;3.40;;;;;;;3.68;100.00;100182.00;686598;28;961;-66
2023/04/25 01:17:14;;;;;;;7.70;3.57;;;;;;;3.67;100.00;100184.53;689219;28;824;-66
2023/04/25 01:17:35;;;;;;;7.07;3.08;;;;;;;3.65;100.00;100188.84;688916;28;1540;-66
2023/04/25 01:17:57;;;;;;;7.70;3.23;;;;;;;3.65;100.00;100187.09;686958;28;1536;-66
2023/04/25 01:18:20;;;;;;;7.30;3.60;;;;;;;3.68;100.00;100186.28;685456;28;1280;-66
2023/04/25 01:18:42;;;;;;;7.82;3.40;;;;;;;3.69;100.00;100190.63;681056;28;988;-66
2023/04/25 01:19:08;;;;;;;9.23;3.72;;;;;;;3.66;100.00;100186.28;683188;28;992;-66
2023/04/25 01:19:29;;;;;;;8.02;3.85;;;;;;;3.68;100.00;100189.78;681273;28;4990;-66
2023/04/25 01:19:50;;;;;;;7.80;3.63;;;;;;;3.75;100.00;100194.19;682838;28;1471;-66
2023/04/25 01:20:11;;;;;;;7.28;3.17;;;;;;;3.82;100.00;100197.72;685766;28;1306;-66
2023/04/25 01:20:33;;;;;;;7.63;3.30;;;;;;;3.85;100.00;100194.28;686716;28;1437;-66
2023/04/25 01:20:54;;;;;;;10.05;3.70;;;;;;;3.83;100.00;100196.88;687258;28;1509;-66
2023/04/25 01:21:16;;;;;;;7.47;3.40;;;;;;;3.80;100.00;100194.25;687536;28;1253;-66
2023/04/25 01:21:36;;;;;;;6.53;3.20;;;;;;;3.79;100.00;100195.06;687945;28;1044;-66
2023/04/25 01:21:57;;;;;;;6.75;3.20;;;;;;;3.79;100.00;100194.22;688098;28;1502;-66
2023/04/25 01:22:17;;;;;;;8.20;3.30;;;;;;;3.80;100.00;100191.66;684577;28;4412;-66
2023/04/25 01:22:38;;;;;;;7.93;3.20;;;;;;;3.80;100.00;100194.25;683816;28;1657;-66
2023/04/25 01:22:58;;;;;;;6.60;3.55;;;;;;;3.80;100.00;100190.78;685738;28;841;-66
2023/04/25 01:23:23;;;;;;;7.07;3.55;;;;;;;3.78;100.00;100193.34;684361;28;1786;-66
2023/04/25 01:23:45;;;;;;;7.45;3.35;;;;;;;3.77;100.00;100198.47;682090;28;1559;-66
2023/04/25 01:24:06;;;;;;;8.55;3.33;;;;;;;3.75;100.00;100189.00;685448;28;1364;-66
2023/04/25 01:24:30;;;;;;;8.00;3.40;;;;;;;3.77;100.00;100195.91;685584;28;1206;-66
2023/04/25 01:24:51;;;;;;;7.93;3.65;;;;;;;3.77;100.00;100191.63;684865;28;1539;-66
2023/04/25 01:25:12;;;;;;;7.35;3.63;;;;;;;3.78;100.00;100195.06;686507;28;4472;-66
2023/04/25 01:25:33;;;;;;;8.20;3.65;;;;;;;3.77;100.00;100198.47;684559;28;1419;-66
2023/04/25 01:25:55;;;;;;;8.13;3.55;;;;;;;3.77;100.00;100198.47;680437;29;1591;-66
2023/04/25 01:26:18;;;;;;;8.13;3.95;;;;;;;3.78;100.00;100192.47;678228;29;1781;-66
2023/04/25 01:26:40;;;;;;;8.15;4.28;;;;;;;3.78;100.00;100189.88;678897;29;1812;-66
2023/04/25 01:27:01;;;;;;;7.47;3.97;;;;;;;3.81;100.00;100188.22;678673;29;1469;-66
2023/04/25 01:27:22;;;;;;;7.55;3.63;;;;;;;3.84;100.00;100192.59;680868;29;1543;-66
2023/04/25 01:27:43;;;;;;;7.05;4.00;;;;;;;3.85;100.00;100189.13;681440;28;1498;-66
2023/04/25 01:28:03;;;;;;;7.65;4.00;;;;;;;3.85;100.00;100189.13;684071;28;901;-66
2023/04/25 01:28:25;;;;;;;9.00;3.60;;;;;;;3.90;100.00;100192.66;682571;28;5637;-66
2023/04/25 01:28:46;;;;;;;9.13;3.43;;;;;;;3.88;100.00;100194.38;682756;28;1486;-66
2023/04/25 01:29:07;;;;;;;7.68;3.22;;;;;;;3.87;100.00;100190.03;684083;28;1938;-66
2023/04/25 01:29:29;;;;;;;7.60;3.40;;;;;;;3.91;100.00;100186.66;679980;28;1486;-66
2023/04/25 01:29:51;;;;;;;9.57;3.60;;;;;;;4.05;100.00;100192.88;682545;28;1639;-67
2023/04/25 01:30:12;;;;;;;10.32;3.65;;;;;;;4.04;100.00;100193.75;681290;28;1379;-66
2023/04/25 01:30:34;;;;;;;10.30;3.90;;;;;;;4.03;100.00;100193.69;677338;29;1120;-66
2023/04/25 01:30:56;;;;;;;8.13;3.53;;;;;;;4.07;100.00;100188.63;680715;28;2620;-66
2023/04/25 01:31:18;;;;;;;9.20;3.80;;;;;;;4.06;100.00;100192.03;678888;29;4400;-66
2023/04/25 01:31:39;;;;;;;8.68;3.70;;;;;;;4.06;100.00;100186.88;680331;28;1225;-66
2023/04/25 01:32:01;;;;;;;9.45;3.65;;;;;;;4.05;100.00;100190.28;678429;29;1528;-66
2023/04/25 01:32:25;;;;;;;7.70;3.45;;;;;;;4.05;100.00;100192.88;678626;29;908;-66
2023/04/25 01:32:48;;;;;;;10.85;3.88;;;;;;;4.03;100.00;100189.41;677218;29;1492;-66
2023/04/25 01:33:08;;;;;;;9.00;3.75;;;;;;;4.02;100.00;100187.66;680898;28;1187;-66
2023/04/25 01:33:29;;;;;;;8.35;3.50;;;;;;;4.02;100.00;100191.97;676021;29;1250;-66
2023/04/25 01:33:49;;;;;;;8.93;3.80;;;;;;;4.07;100.00;100185.13;677164;28;1464;-67
2023/04/25 01:34:11;;;;;;;8.82;3.63;;;;;;;4.09;100.00;100194.66;683582;28;4417;-66
2023/04/25 01:34:31;;;;;;;9.00;3.40;;;;;;;4.09;100.00;100186.91;682214;28;1400;-66
2023/04/25 01:34:52;;;;;;;8.77;3.50;;;;;;;4.11;100.00;100191.22;681929;28;1602;-66
2023/04/25 01:35:13;;;;;;;10.88;3.80;;;;;;;4.08;100.00;100189.47;685160;28;1299;-66
2023/04/25 01:35:34;;;;;;;11.18;3.80;;;;;;;4.08;100.00;100192.94;685620;28;899;-66
2023/04/25 01:35:55;;;;;;;9.88;3.80;;;;;;;4.11;100.00;100186.06;685633;28;1805;-66
2023/04/25 01:36:15;;;;;;;8.60;3.93;;;;;;;4.11;100.00;100188.66;686914;28;884;-66
2023/04/25 01:36:36;;;;;;;10.07;4.10;;;;;;;4.16;100.00;100189.59;687893;28;797;-67
2023/04/25 01:36:58;;;;;;;9.27;3.73;;;;;;;4.19;100.00;100192.22;690497;28;1576;-66
2023/04/25 01:37:19;;;;;;;8.75;3.50;;;;;;;4.20;100.00;100189.63;690783;28;4753;-66
2023/04/25 01:37:41;;;;;;;10.32;3.70;;;;;;;4.21;100.00;100187.91;690174;28;1568;-66
2023/04/25 01:38:02;;;;;;;9.80;3.80;;;;;;;4.20;100.00;100192.22;686792;28;1336;-66
2023/04/25 01:38:23;;;;;;;8.83;3.73;;;;;;;4.26;100.00;100187.16;687538;28;876;-67
2023/04/25 01:38:43;;;;;;;9.82;3.47;;;;;;;4.49;100.00;100194.34;687411;28;1558;-67
2023/04/25 01:39:04;;;;;;;9.13;3.35;;;;;;;4.45;100.00;100191.69;683589;28;1294;-66
2023/04/25 01:39:25;;;;;;;10.43;3.72;;;;;;;4.43;100.00;100197.72;682857;28;1474;-66
2023/04/25 01:39:46;;;;;;;10.90;3.63;;;;;;;4.38;100.00;100191.59;682752;28;1508;-66
2023/04/25 01:40:09;;;;;;;11.07;3.55;;;;;;;4.37;100.00;100189.84;685632;28;4356;-66
2023/04/25 01:40:31;;;;;;;9.07;3.30;;;;;;;4.34;100.00;100194.16;679678;29;1392;-65
2023/04/25 01:40:52;;;;;;;11.07;3.30;;;;;;;4.36;100.00;100190.72;678849;28;1465;-66